Time;durP1;ratioP1;P1;durP2;ratioP2;P2;SDS_P1;SDS_P2;PMS_P1;PMS_P2;Temp;Humidity;BMP_temperature;BMP_pressure;BME280_temperature;BME280_humidity;BME280_pressure;Samples;Min_cycle;Max_cycle;Signal;HPM_P1;HPM_P2
2022/04/07 00:08:47;;;;;;;;;0.50;0.50;;;;;;;;2;279081221;279081221;-89
2022/04/07 00:17:02;;;;;;;;;2.50;2.50;;;;;;;;2;234070500;234070500;-88
2022/04/07 00:26:03;;;;;;;;;0.00;0.00;;;;;;;;2;279082785;279082785;-88
2022/04/07 00:34:18;;;;;;;;;1.50;1.50;;;;;;;;2;234066857;234066857;-89
2022/04/07 00:43:31;;;;;;;;;1.00;1.00;;;;;;;;2;279078319;279078319;-88
2022/04/07 00:51:49;;;;;;;;;0.50;0.50;;;;;;;;2;234068427;234068427;-89
2022/04/07 01:00:49;;;;;;;;;0.00;0.00;;;;;;;;2;279082561;279082561;-90
2022/04/07 01:09:05;;;;;;;;;1.50;1.50;;;;;;;;2;234069482;234069482;-91
2022/04/07 01:18:05;;;;;;;;;0.50;0.50;;;;;;;;2;279082240;279082240;-89
2022/04/07 01:26:21;;;;;;;;;1.00;1.00;;;;;;;;2;234071839;234071839;-89
2022/04/07 01:35:22;;;;;;;;;1.00;1.00;;;;;;;;2;279079993;279079993;-88
2022/04/07 01:43:39;;;;;;;;;0.00;0.00;;;;;;;;2;234067518;234067518;-88
2022/04/07 01:52:40;;;;;;;;;0.00;0.00;;;;;;;;2;279082059;279082059;-88
2022/04/07 02:00:56;;;;;;;;;0.00;0.00;;;;;;;;2;234068503;234068503;-89
2022/04/07 02:09:56;;;;;;;;;1.00;1.00;;;;;;;;2;279080170;279080170;-89
2022/04/07 02:18:12;;;;;;;;;0.00;0.00;;;;;;;;2;234070172;234070172;-88
2022/04/07 02:27:13;;;;;;;;;0.00;0.00;;;;;;;;2;279080496;279080496;-88
2022/04/07 02:35:28;;;;;;;;;0.00;0.00;;;;;;;;2;234068603;234068603;-88
2022/04/07 02:44:28;;;;;;;;;1.50;1.50;;;;;;;;2;279078625;279078625;-89
2022/04/07 02:52:44;;;;;;;;;2.00;2.00;;;;;;;;2;234072516;234072516;-90
2022/04/07 03:01:45;;;;;;;;;2.50;1.00;;;;;;;;2;279081623;279081623;-88
2022/04/07 03:10:00;;;;;;;;;0.00;0.00;;;;;;;;2;234069450;234069450;-89
2022/04/07 03:19:01;;;;;;;;;0.50;0.50;;;;;;;;2;279082272;279082272;-88
2022/04/07 03:27:16;;;;;;;;;0.00;0.00;;;;;;;;2;234067443;234067443;-88
2022/04/07 03:36:17;;;;;;;;;0.50;0.50;;;;;;;;2;279081833;279081833;-89
2022/04/07 03:44:33;;;;;;;;;0.00;0.00;;;;;;;;2;234069245;234069245;-88
2022/04/07 03:53:33;;;;;;;;;0.50;0.50;;;;;;;;2;279080376;279080376;-88
2022/04/07 04:01:48;;;;;;;;;0.50;0.50;;;;;;;;2;234067770;234067770;-88
2022/04/07 04:10:49;;;;;;;;;1.50;1.50;;;;;;;;2;279080980;279080980;-87
2022/04/07 04:19:04;;;;;;;;;0.50;0.50;;;;;;;;2;234070080;234070080;-88
2022/04/07 04:28:05;;;;;;;;;0.00;0.00;;;;;;;;2;279084351;279084351;-87
2022/04/07 04:36:20;;;;;;;;;4.00;1.00;;;;;;;;2;234068148;234068148;-88
2022/04/07 04:45:21;;;;;;;;;3.50;2.00;;;;;;;;2;279085597;279085597;-88
2022/04/07 04:53:36;;;;;;;;;1.00;1.00;;;;;;;;2;234069822;234069822;-87
2022/04/07 05:02:39;;;;;;;;;0.50;0.50;;;;;;;;2;279081452;279081452;-87
2022/04/07 05:10:55;;;;;;;;;1.50;1.50;;;;;;;;2;234071343;234071343;-87
2022/04/07 05:19:55;;;;;;;;;1.00;1.00;;;;;;;;2;279082887;279082887;-89
2022/04/07 05:28:11;;;;;;;;;4.50;0.50;;;;;;;;2;234068686;234068686;-89
2022/04/07 05:37:11;;;;;;;;;1.00;1.00;;;;;;;;2;279082935;279082935;-89
2022/04/07 05:45:27;;;;;;;;;1.50;1.50;;;;;;;;2;234070345;234070345;-87
2022/04/07 05:54:27;;;;;;;;;0.00;0.00;;;;;;;;2;279081911;279081911;-86
2022/04/07 06:02:43;;;;;;;;;0.00;0.00;;;;;;;;2;234072304;234072304;-87
2022/04/07 06:11:43;;;;;;;;;1.00;1.00;;;;;;;;2;279082965;279082965;-88
2022/04/07 06:19:58;;;;;;;;;0.50;0.50;;;;;;;;2;234070044;234070044;-88
2022/04/07 06:28:59;;;;;;;;;0.50;0.50;;;;;;;;2;279080673;279080673;-87
2022/04/07 06:37:14;;;;;;;;;1.50;1.50;;;;;;;;2;234068752;234068752;-86
2022/04/07 06:46:15;;;;;;;;;0.00;0.00;;;;;;;;2;279083531;279083531;-88
2022/04/07 06:54:30;;;;;;;;;0.50;0.50;;;;;;;;2;234068637;234068637;-88
2022/04/07 07:03:31;;;;;;;;;1.00;1.00;;;;;;;;2;279083938;279083938;-88
2022/04/07 07:11:47;;;;;;;;;2.00;2.00;;;;;;;;2;234070744;234070744;-87
2022/04/07 07:20:47;;;;;;;;;0.50;0.50;;;;;;;;2;279083580;279083580;-88
2022/04/07 07:29:03;;;;;;;;;1.00;1.00;;;;;;;;2;234068990;234068990;-87
2022/04/07 07:38:04;;;;;;;;;0.00;0.00;;;;;;;;2;279080312;279080312;-87
2022/04/07 07:46:20;;;;;;;;;0.00;0.00;;;;;;;;2;234069004;234069004;-88
2022/04/07 07:55:20;;;;;;;;;1.00;1.00;;;;;;;;2;279083213;279083213;-89
2022/04/07 08:03:36;;;;;;;;;0.00;0.00;;;;;;;;2;234067387;234067387;-91
2022/04/07 08:12:37;;;;;;;;;0.00;0.00;;;;;;;;2;279084162;279084162;-92
2022/04/07 08:20:52;;;;;;;;;0.00;0.00;;;;;;;;2;234064439;234064439;-88
2022/04/07 08:29:52;;;;;;;;;0.00;0.00;;;;;;;;2;279080821;279080821;-86
2022/04/07 08:38:10;;;;;;;;;0.00;0.00;;;;;;;;2;234071384;234071384;-87
2022/04/07 08:47:11;;;;;;;;;0.00;0.00;;;;;;;;2;279083453;279083453;-87
2022/04/07 08:55:26;;;;;;;;;0.00;0.00;;;;;;;;2;234076020;234076020;-87
2022/04/07 09:04:28;;;;;;;;;0.00;0.00;;;;;;;;2;279084626;279084626;-87
2022/04/07 09:12:44;;;;;;;;;7.50;0.00;;;;;;;;2;234072806;234072806;-88
2022/04/07 09:21:44;;;;;;;;;0.00;0.00;;;;;;;;2;279076129;279076129;-89
2022/04/07 09:30:00;;;;;;;;;0.50;0.50;;;;;;;;2;234070348;234070348;-87
2022/04/07 09:39:01;;;;;;;;;0.00;0.00;;;;;;;;2;279081262;279081262;-87
2022/04/07 09:47:16;;;;;;;;;0.00;0.00;;;;;;;;2;234073545;234073545;-87
2022/04/07 09:59:39;;;;;;;;;0.00;0.00;;;;;;;;2;279069019;279069019;-89
2022/04/07 10:07:56;;;;;;;;;0.00;0.00;;;;;;;;2;234067545;234067545;-89
2022/04/07 10:16:57;;;;;;;;;0.00;0.00;;;;;;;;2;279080302;279080302;-90
2022/04/07 10:25:13;;;;;;;;;0.00;0.00;;;;;;;;2;234070229;234070229;-87
2022/04/07 10:34:13;;;;;;;;;23.00;1.50;;;;;;;;2;279083627;279083627;-81
2022/04/07 10:42:58;;;;;;;;;0.00;0.00;;;;;;;;2;234072030;234072030;-81
2022/04/07 10:52:00;;;;;;;;;0.00;0.00;;;;;;;;2;279086222;279086222;-83
2022/04/07 11:00:18;;;;;;;;;0.00;0.00;;;;;;;;2;234072456;234072456;-83
2022/04/07 11:09:22;;;;;;;;;1.50;1.50;;;;;;;;2;279086824;279086824;-79
2022/04/07 11:17:41;;;;;;;;;12.00;0.00;;;;;;;;2;234071596;234071596;-81
2022/04/07 11:26:41;;;;;;;;;0.00;0.00;;;;;;;;2;279083603;279083603;-75
2022/04/07 11:35:00;;;;;;;;;0.00;0.00;;;;;;;;2;234071313;234071313;-77
2022/04/07 11:44:06;;;;;;;;;0.00;0.00;;;;;;;;2;279083417;279083417;-78
2022/04/07 11:52:23;;;;;;;;;0.50;0.50;;;;;;;;2;234071679;234071679;-79
2022/04/07 12:01:23;;;;;;;;;0.00;0.00;;;;;;;;2;279081037;279081037;-79
2022/04/07 12:09:39;;;;;;;;;0.50;0.50;;;;;;;;2;234071041;234071041;-79
2022/04/07 12:18:40;;;;;;;;;2.00;2.00;;;;;;;;2;279081624;279081624;-78
2022/04/07 12:26:58;;;;;;;;;0.00;0.00;;;;;;;;2;234068811;234068811;-79
2022/04/07 12:35:58;;;;;;;;;2.00;2.00;;;;;;;;2;279079682;279079682;-79
2022/04/07 12:44:19;;;;;;;;;0.00;0.00;;;;;;;;2;234071951;234071951;-79
2022/04/07 12:53:45;;;;;;;;;0.00;0.00;;;;;;;;2;279084978;279084978;-80
2022/04/07 13:02:01;;;;;;;;;0.50;0.50;;;;;;;;2;234069412;234069412;-79
2022/04/07 13:11:01;;;;;;;;;0.00;0.00;;;;;;;;2;279083067;279083067;-78
2022/04/07 13:19:17;;;;;;;;;1.00;1.00;;;;;;;;2;234067456;234067456;-80
2022/04/07 13:28:17;;;;;;;;;0.50;0.50;;;;;;;;2;279081720;279081720;-80
2022/04/07 13:36:38;;;;;;;;;0.00;0.00;;;;;;;;2;234067579;234067579;-80
2022/04/07 13:45:39;;;;;;;;;0.00;0.00;;;;;;;;2;279083980;279083980;-80
2022/04/07 13:53:54;;;;;;;;;6.50;2.00;;;;;;;;2;234070343;234070343;-79
2022/04/07 14:02:55;;;;;;;;;1.00;1.00;;;;;;;;2;279083318;279083318;-79
2022/04/07 14:11:11;;;;;;;;;1.00;1.00;;;;;;;;2;234072047;234072047;-79
2022/04/07 14:20:12;;;;;;;;;1.00;1.00;;;;;;;;2;279081590;279081590;-79
2022/04/07 14:28:27;;;;;;;;;0.50;0.50;;;;;;;;2;234075033;234075033;-79
2022/04/07 14:37:30;;;;;;;;;0.50;0.50;;;;;;;;2;279086449;279086449;-80
2022/04/07 14:45:47;;;;;;;;;0.00;0.00;;;;;;;;2;234067893;234067893;-82
2022/04/07 14:54:47;;;;;;;;;11.50;0.50;;;;;;;;2;279080821;279080821;-81
2022/04/07 15:03:03;;;;;;;;;0.00;0.00;;;;;;;;2;234071349;234071349;-80
2022/04/07 15:12:04;;;;;;;;;8.50;0.00;;;;;;;;2;279081610;279081610;-81
2022/04/07 15:20:20;;;;;;;;;11.00;11.00;;;;;;;;2;234073521;234073521;-81
2022/04/07 15:29:21;;;;;;;;;0.00;0.00;;;;;;;;2;279082558;279082558;-81
2022/04/07 15:37:37;;;;;;;;;2.00;2.00;;;;;;;;2;234070039;234070039;-79
2022/04/07 15:46:37;;;;;;;;;0.00;0.00;;;;;;;;2;279082311;279082311;-80
2022/04/07 15:54:53;;;;;;;;;1.00;1.00;;;;;;;;2;234070101;234070101;-80
2022/04/07 16:03:53;;;;;;;;;4.00;4.00;;;;;;;;2;279086752;279086752;-81
2022/04/07 16:12:09;;;;;;;;;1.50;1.50;;;;;;;;2;234068657;234068657;-81
2022/04/07 16:21:09;;;;;;;;;0.50;0.50;;;;;;;;2;279085942;279085942;-80
2022/04/07 16:29:27;;;;;;;;;1.50;1.50;;;;;;;;2;234070359;234070359;-79
2022/04/07 16:38:28;;;;;;;;;3.00;3.00;;;;;;;;2;279084809;279084809;-79
2022/04/07 16:46:43;;;;;;;;;0.00;0.00;;;;;;;;2;234078182;234078182;-80
2022/04/07 16:55:44;;;;;;;;;0.00;0.00;;;;;;;;2;279088070;279088070;-80
2022/04/07 17:03:59;;;;;;;;;1.50;1.50;;;;;;;;2;234070629;234070629;-79
2022/04/07 17:13:01;;;;;;;;;0.50;0.50;;;;;;;;2;279082143;279082143;-80
2022/04/07 17:21:17;;;;;;;;;3.00;1.00;;;;;;;;2;234071523;234071523;-81
2022/04/07 17:30:18;;;;;;;;;4.50;0.50;;;;;;;;2;279078944;279078944;-80
2022/04/07 17:38:34;;;;;;;;;3.00;3.00;;;;;;;;2;234069589;234069589;-79
2022/04/07 17:47:35;;;;;;;;;0.00;0.00;;;;;;;;2;279082810;279082810;-80
2022/04/07 17:55:50;;;;;;;;;3.50;0.50;;;;;;;;2;234070863;234070863;-79
2022/04/07 18:04:50;;;;;;;;;0.00;0.00;;;;;;;;2;279080005;279080005;-79
2022/04/07 18:13:06;;;;;;;;;0.50;0.50;;;;;;;;2;234069160;234069160;-79
2022/04/07 18:22:06;;;;;;;;;1.50;1.50;;;;;;;;2;279091942;279091942;-79
2022/04/07 18:30:22;;;;;;;;;2.00;2.00;;;;;;;;2;234068892;234068892;-80
2022/04/07 18:39:23;;;;;;;;;0.50;0.50;;;;;;;;2;279085586;279085586;-80
2022/04/07 18:47:38;;;;;;;;;0.00;0.00;;;;;;;;2;234071918;234071918;-83
2022/04/07 18:56:39;;;;;;;;;0.50;0.50;;;;;;;;2;279087661;279087661;-79
2022/04/07 19:04:54;;;;;;;;;1.00;1.00;;;;;;;;2;234071127;234071127;-79
2022/04/07 19:13:54;;;;;;;;;4.50;1.00;;;;;;;;2;279079438;279079438;-78
2022/04/07 19:22:11;;;;;;;;;0.00;0.00;;;;;;;;2;234067849;234067849;-79
2022/04/07 19:31:11;;;;;;;;;1.00;1.00;;;;;;;;2;279084833;279084833;-79
2022/04/07 19:39:27;;;;;;;;;0.00;0.00;;;;;;;;2;234073503;234073503;-79
2022/04/07 19:48:28;;;;;;;;;0.00;0.00;;;;;;;;2;279082104;279082104;-80
2022/04/07 19:56:43;;;;;;;;;0.50;0.50;;;;;;;;2;234070930;234070930;-80
2022/04/07 20:05:44;;;;;;;;;0.00;0.00;;;;;;;;2;279080885;279080885;-80
2022/04/07 20:13:59;;;;;;;;;0.00;0.00;;;;;;;;2;234072729;234072729;-80
2022/04/07 20:22:59;;;;;;;;;3.00;3.00;;;;;;;;2;279084614;279084614;-79
2022/04/07 20:31:16;;;;;;;;;1.50;1.50;;;;;;;;2;234071076;234071076;-81
2022/04/07 20:40:19;;;;;;;;;0.00;0.00;;;;;;;;2;279083739;279083739;-79
2022/04/07 20:48:35;;;;;;;;;1.00;1.00;;;;;;;;2;234071159;234071159;-80
2022/04/07 20:57:36;;;;;;;;;0.00;0.00;;;;;;;;2;279081952;279081952;-81
2022/04/07 21:05:52;;;;;;;;;0.50;0.50;;;;;;;;2;234067930;234067930;-80
2022/04/07 21:14:52;;;;;;;;;0.00;0.00;;;;;;;;2;279081772;279081772;-79
2022/04/07 21:23:08;;;;;;;;;0.00;0.00;;;;;;;;2;234066984;234066984;-82
2022/04/07 21:32:08;;;;;;;;;0.00;0.00;;;;;;;;2;279087866;279087866;-79
2022/04/07 21:40:23;;;;;;;;;0.00;0.00;;;;;;;;2;234071563;234071563;-80
2022/04/07 21:49:27;;;;;;;;;1.50;0.00;;;;;;;;2;279084466;279084466;-81
2022/04/07 21:57:42;;;;;;;;;0.00;0.00;;;;;;;;2;234073198;234073198;-81
2022/04/07 22:06:43;;;;;;;;;4.00;0.00;;;;;;;;2;279084137;279084137;-80
2022/04/07 22:14:58;;;;;;;;;0.00;0.00;;;;;;;;2;234072205;234072205;-81
2022/04/07 22:23:58;;;;;;;;;2.00;0.00;;;;;;;;2;279084978;279084978;-79
2022/04/07 22:32:14;;;;;;;;;0.50;0.50;;;;;;;;2;234070058;234070058;-79
2022/04/07 22:41:14;;;;;;;;;0.50;0.50;;;;;;;;2;279079848;279079848;-80
2022/04/07 22:49:33;;;;;;;;;0.00;0.00;;;;;;;;2;234068769;234068769;-80
2022/04/07 22:58:33;;;;;;;;;0.00;0.00;;;;;;;;2;279079424;279079424;-80
2022/04/07 23:06:49;;;;;;;;;0.50;0.50;;;;;;;;2;234068978;234068978;-79
2022/04/07 23:15:51;;;;;;;;;0.00;0.00;;;;;;;;2;279082711;279082711;-79
2022/04/07 23:24:07;;;;;;;;;4.50;0.50;;;;;;;;2;234070618;234070618;-80
2022/04/07 23:33:07;;;;;;;;;0.00;0.00;;;;;;;;2;279080886;279080886;-80
2022/04/07 23:41:23;;;;;;;;;0.00;0.00;;;;;;;;2;234069900;234069900;-80
2022/04/07 23:50:24;;;;;;;;;1.00;1.00;;;;;;;;2;279081134;279081134;-80
2022/04/07 23:58:39;;;;;;;;;0.00;0.00;;;;;;;;2;234068907;234068907;-80
